createdAt,value
2022-08-14T00:00:13.465Z,57.87
2022-08-14T00:01:13.221Z,44.34
2022-08-14T00:02:12.462Z,43.92
2022-08-14T00:03:12.965Z,46.74
2022-08-14T00:04:34.205Z,42.94
2022-08-14T00:05:13.428Z,50.49
2022-08-14T00:06:25.313Z,43.09
2022-08-14T00:07:14.260Z,48.51
2022-08-14T00:08:14.090Z,42.19
2022-08-14T00:09:12.381Z,42.12
2022-08-14T00:10:51.960Z,42.53
2022-08-14T00:11:13.366Z,55.14
2022-08-14T00:12:23.757Z,55.95
2022-08-14T00:13:13.560Z,44.58
2022-08-14T00:14:12.354Z,53.68
2022-08-14T00:15:15.054Z,51.16
2022-08-14T00:16:12.369Z,43.05
2022-08-14T00:17:13.386Z,48.68
2022-08-14T00:18:14.501Z,42.58
2022-08-14T00:19:19.355Z,47.66
2022-08-14T00:20:13.326Z,47.23
2022-08-14T00:21:12.964Z,49.35
2022-08-14T00:22:12.330Z,43.42
2022-08-14T00:23:16.518Z,50.31
2022-08-14T00:24:12.296Z,47.39
2022-08-14T00:25:12.322Z,42.29
2022-08-14T00:26:21.471Z,42.52
2022-08-14T00:27:13.298Z,42.37
2022-08-14T00:28:15.398Z,47.33
2022-08-14T00:29:13.269Z,42.26
2022-08-14T00:30:14.306Z,47.11
2022-08-14T00:31:13.743Z,42.26
2022-08-14T00:32:53.008Z,42.17
2022-08-14T00:33:15.186Z,56.05
2022-08-14T00:34:37.243Z,42.96
2022-08-14T00:35:14.186Z,42.42
2022-08-14T00:36:37.635Z,42.55
2022-08-14T00:37:13.276Z,42.80
2022-08-14T00:38:12.220Z,52.55
2022-08-14T00:39:12.271Z,44.29
2022-08-14T00:40:27.299Z,46.69
2022-08-14T00:41:13.161Z,43.47
2022-08-14T00:42:52.858Z,43.91
2022-08-14T00:43:13.267Z,57.52
2022-08-14T00:44:12.109Z,49.80
2022-08-14T00:45:12.204Z,47.27
2022-08-14T00:46:32.774Z,42.65
2022-08-14T00:47:13.157Z,45.72
2022-08-14T00:48:12.057Z,48.37
2022-08-14T00:49:14.619Z,43.77
2022-08-14T00:50:17.664Z,42.34
2022-08-14T00:51:13.146Z,42.33
2022-08-14T00:52:14.078Z,42.65
2022-08-14T00:53:13.111Z,42.53
2022-08-14T00:54:21.176Z,47.20
2022-08-14T00:55:13.909Z,48.81
2022-08-14T00:56:15.428Z,55.82
2022-08-14T00:57:11.999Z,46.87
2022-08-14T00:58:12.747Z,42.99
2022-08-14T00:59:12.060Z,48.54
2022-08-14T01:00:34.128Z,49.06
2022-08-14T01:01:13.250Z,43.59
2022-08-14T01:02:12.055Z,48.54
2022-08-14T01:03:11.957Z,46.63
2022-08-14T01:04:51.792Z,47.33
2022-08-14T01:05:13.002Z,43.10
2022-08-14T01:06:12.008Z,43.18
2022-08-14T01:07:11.989Z,56.01
2022-08-14T01:08:20.657Z,42.62
2022-08-14T01:09:12.940Z,42.57
2022-08-14T01:10:11.904Z,47.76
2022-08-14T01:11:11.940Z,42.96
2022-08-14T01:12:12.955Z,43.38
2022-08-14T01:13:12.894Z,42.91
2022-08-14T01:14:25.525Z,42.90
2022-08-14T01:15:14.702Z,42.26
2022-08-14T01:16:14.761Z,49.33
2022-08-14T01:17:11.873Z,42.70
2022-08-14T01:18:11.818Z,47.31
2022-08-14T01:19:11.947Z,42.71
2022-08-14T01:20:27.579Z,50.25
2022-08-14T01:21:13.300Z,42.40
2022-08-14T01:22:12.978Z,42.48
2022-08-14T01:23:16.730Z,47.48
2022-08-14T01:24:12.821Z,53.85
2022-08-14T01:25:11.821Z,43.94
2022-08-14T01:26:11.855Z,48.06
2022-08-14T01:27:12.763Z,43.86
2022-08-14T01:28:11.799Z,47.78
2022-08-14T01:29:22.148Z,45.07
2022-08-14T01:30:12.804Z,43.32
2022-08-14T01:31:11.758Z,43.36
2022-08-14T01:32:11.780Z,47.50
2022-08-14T01:33:11.772Z,48.57
2022-08-14T01:35:19.430Z,47.66
2022-08-14T01:35:20.997Z,48.29
2022-08-14T01:36:22.780Z,48.24
2022-08-14T01:37:12.727Z,49.28
2022-08-14T01:38:11.701Z,51.88
2022-08-14T01:39:12.694Z,48.57
2022-08-14T01:40:11.681Z,41.98
2022-08-14T01:41:14.841Z,42.03
2022-08-14T01:42:11.732Z,42.16
2022-08-14T01:43:12.660Z,42.94
2022-08-14T01:44:33.135Z,43.78
2022-08-14T02:03:15.843Z,42.05
2022-08-14T02:04:40.867Z,42.37
2022-08-14T02:05:16.804Z,42.69
2022-08-14T02:06:32.696Z,49.45
2022-08-14T02:07:17.914Z,50.76
2022-08-14T02:08:22.439Z,42.65
2022-08-14T02:09:22.247Z,46.69
2022-08-14T02:10:16.989Z,46.31
2022-08-14T02:11:16.895Z,42.42
2022-08-14T02:12:19.395Z,45.28
2022-08-14T02:15:35.456Z,47.30
2022-08-14T02:16:35.501Z,42.29
2022-08-14T02:17:36.552Z,42.27
2022-08-14T02:18:36.554Z,42.14
2022-08-14T02:19:36.544Z,48.45
2022-08-14T02:20:36.557Z,42.24
2022-08-14T02:21:43.319Z,42.28
2022-08-14T02:22:47.452Z,42.63
2022-08-14T02:23:37.514Z,54.79
2022-08-14T02:24:39.859Z,48.38
2022-08-14T02:25:36.527Z,45.10
2022-08-14T02:28:18.652Z,50.33
2022-08-14T02:28:24.026Z,57.80
2022-08-14T02:28:57.189Z,50.68
2022-08-14T02:29:56.441Z,43.96
2022-08-14T02:30:38.601Z,42.85
2022-08-14T02:31:43.442Z,42.28
2022-08-14T02:32:37.586Z,42.29
2022-08-14T02:33:38.990Z,47.47
2022-08-14T02:34:36.464Z,42.61
2022-08-14T02:35:40.926Z,44.49
2022-08-14T02:37:05.430Z,47.56
2022-08-14T02:37:47.365Z,43.83
2022-08-14T02:38:37.396Z,47.00
2022-08-14T02:39:37.216Z,43.67
2022-08-14T02:41:09.065Z,46.58
2022-08-14T02:41:39.971Z,42.88
2022-08-14T02:42:38.419Z,46.78
2022-08-14T02:43:46.423Z,48.22
2022-08-14T02:44:39.642Z,42.68
2022-08-14T02:45:38.499Z,46.51
2022-08-14T02:46:37.365Z,43.70
2022-08-14T02:47:38.870Z,44.33
2022-08-14T02:49:01.615Z,46.54
2022-08-14T02:49:37.317Z,49.38
2022-08-14T02:50:36.310Z,43.03
2022-08-14T02:51:36.977Z,48.57
2022-08-14T02:52:57.880Z,48.73
2022-08-14T02:53:37.357Z,48.62
2022-08-14T02:54:36.294Z,43.07
2022-08-14T02:55:36.276Z,45.39
2022-08-14T02:57:16.229Z,48.81
2022-08-14T02:57:39.711Z,48.33
2022-08-14T02:58:37.107Z,51.33
2022-08-14T02:59:36.338Z,45.85
2022-08-14T03:00:40.144Z,47.97
2022-08-14T03:01:50.362Z,42.25
2022-08-14T03:02:56.257Z,42.23
2022-08-14T03:03:38.985Z,42.11
2022-08-14T03:04:36.206Z,42.12
2022-08-14T03:05:37.206Z,44.44
2022-08-14T03:06:58.107Z,42.82
2022-08-14T03:07:37.160Z,42.46
2022-08-14T03:08:36.167Z,48.25
2022-08-14T03:10:25.253Z,42.44
2022-08-14T03:10:37.147Z,42.19
2022-08-14T03:11:36.168Z,42.09
2022-08-14T03:12:36.181Z,42.62
2022-08-14T03:13:36.168Z,47.88
2022-08-14T03:14:36.161Z,42.54
2022-08-14T03:15:36.150Z,42.34
2022-08-14T03:16:36.178Z,42.72
2022-08-14T03:17:41.180Z,46.84
2022-08-14T03:18:38.043Z,49.60
2022-08-14T03:19:36.083Z,47.47
2022-08-14T03:20:36.092Z,50.41
2022-08-14T03:21:36.129Z,53.43
2022-08-14T03:22:36.080Z,49.74
2022-08-14T03:23:36.462Z,49.03
2022-08-14T03:24:36.047Z,43.29
2022-08-14T03:25:37.719Z,56.46
2022-08-14T03:26:36.080Z,44.03
2022-08-14T03:27:47.733Z,60.80
2022-08-14T03:28:37.031Z,49.48
2022-08-14T03:29:36.023Z,49.34
2022-08-14T03:30:38.891Z,44.09
2022-08-14T03:31:36.045Z,49.33
2022-08-14T03:32:36.029Z,61.57
2022-08-14T03:33:37.832Z,46.91
2022-08-14T03:34:47.930Z,46.04
2022-08-14T03:35:40.277Z,47.18
2022-08-14T03:37:51.401Z,43.43
2022-08-14T03:39:09.749Z,48.42
2022-08-14T03:39:11.618Z,42.96
2022-08-14T03:39:36.977Z,48.12
2022-08-14T03:40:35.911Z,48.63
2022-08-14T03:41:35.940Z,48.11
2022-08-14T03:42:36.861Z,52.91
2022-08-14T03:43:35.906Z,43.89
2022-08-14T03:45:28.013Z,43.96
2022-08-14T03:45:36.880Z,43.20
2022-08-14T04:02:46.686Z,47.29
2022-08-14T04:03:41.355Z,42.78
2022-08-14T04:04:40.343Z,49.19
2022-08-14T04:05:43.040Z,54.35
2022-08-14T04:06:42.580Z,48.64
2022-08-14T04:07:41.557Z,50.76
2022-08-14T04:08:41.961Z,50.26
2022-08-14T04:09:40.330Z,48.17
2022-08-14T04:10:40.291Z,43.30
2022-08-14T04:11:40.282Z,45.38
2022-08-14T04:12:40.336Z,49.16
2022-08-14T04:13:41.182Z,45.47
2022-08-14T04:14:40.251Z,55.11
2022-08-14T04:15:52.790Z,48.95
2022-08-14T04:16:41.237Z,43.89
2022-08-14T04:17:40.247Z,43.12
2022-08-14T04:18:40.231Z,43.16
2022-08-14T04:19:40.203Z,44.14
2022-08-14T04:20:51.474Z,51.06
2022-08-14T04:22:02.029Z,46.16
2022-08-14T04:22:41.186Z,45.19
2022-08-14T04:23:40.186Z,42.95
2022-08-14T04:24:40.197Z,42.73
2022-08-14T04:25:40.207Z,48.74
2022-08-14T04:26:43.067Z,46.91
2022-08-14T04:28:01.588Z,45.65
2022-08-14T04:29:05.331Z,43.79
2022-08-14T04:29:41.135Z,48.19
2022-08-14T04:30:42.260Z,43.80
2022-08-14T04:32:58.748Z,48.65
2022-08-14T04:32:59.927Z,48.11
2022-08-14T04:33:41.097Z,50.03
2022-08-14T04:34:41.974Z,48.08
2022-08-14T04:35:56.096Z,49.34
2022-08-14T04:36:41.849Z,49.50
2022-08-14T04:37:40.068Z,45.36
2022-08-14T04:38:40.076Z,54.42
2022-08-14T04:39:46.465Z,47.59
2022-08-14T04:40:41.088Z,53.33
2022-08-14T04:41:40.063Z,50.35
2022-08-14T04:42:47.533Z,49.20
2022-08-14T04:43:41.047Z,43.20
2022-08-14T04:44:40.026Z,49.59
2022-08-14T04:45:40.021Z,49.24
2022-08-14T04:46:55.877Z,52.98
2022-08-14T04:47:46.385Z,54.66
2022-08-14T04:48:43.206Z,44.50
2022-08-14T04:49:46.742Z,49.51
2022-08-14T04:50:44.417Z,43.06
2022-08-14T04:51:55.518Z,47.33
2022-08-14T04:52:40.976Z,50.83
2022-08-14T04:53:43.284Z,50.16
2022-08-14T04:54:40.001Z,44.93
2022-08-14T04:55:39.928Z,49.61
2022-08-14T04:56:39.942Z,46.85
2022-08-14T04:57:39.915Z,43.68
2022-08-14T04:58:39.933Z,49.21
2022-08-14T04:59:39.912Z,44.08
2022-08-14T05:00:39.907Z,51.72
2022-08-14T05:01:40.570Z,44.18
2022-08-14T05:02:39.933Z,47.63
2022-08-14T05:03:39.908Z,44.52
2022-08-14T05:04:39.986Z,43.91
2022-08-14T05:05:40.866Z,49.53
2022-08-14T05:06:39.942Z,43.77
2022-08-14T05:07:53.866Z,49.09
2022-08-14T05:08:57.352Z,43.25
2022-08-14T05:09:43.906Z,54.36
2022-08-14T05:10:43.952Z,43.54
2022-08-14T05:11:40.812Z,43.62
2022-08-14T05:13:12.963Z,57.02
2022-08-14T05:14:33.084Z,45.10
2022-08-14T05:14:53.464Z,45.14
2022-08-14T05:15:40.792Z,47.08
2022-08-14T05:16:39.847Z,43.37
2022-08-14T05:17:44.182Z,48.67
2022-08-14T05:19:24.355Z,43.27
2022-08-14T05:19:44.787Z,54.12
2022-08-14T05:21:55.529Z,44.94
2022-08-14T05:22:00.404Z,48.72
2022-08-14T05:22:40.750Z,46.66
2022-08-14T05:23:39.737Z,50.35
2022-08-14T05:24:39.764Z,51.81
2022-08-14T05:25:39.726Z,50.60
2022-08-14T05:26:39.708Z,44.17
2022-08-14T05:27:39.731Z,46.02
2022-08-14T05:28:39.693Z,49.41
2022-08-14T05:29:39.716Z,52.14
2022-08-14T05:30:39.703Z,57.68
2022-08-14T05:31:40.596Z,57.42
2022-08-14T05:32:40.554Z,55.19
2022-08-14T05:33:39.655Z,48.40
2022-08-14T05:34:39.644Z,44.38
2022-08-14T05:35:39.646Z,48.32
2022-08-14T05:36:39.617Z,49.22
2022-08-14T05:37:39.616Z,44.87
2022-08-14T05:38:40.618Z,49.08
2022-08-14T05:39:39.693Z,58.39
2022-08-14T05:40:39.616Z,50.00
2022-08-14T05:41:52.719Z,43.64
2022-08-14T05:42:40.588Z,52.49
2022-08-14T05:43:41.245Z,53.70
2022-08-14T05:44:39.579Z,52.08
2022-08-14T05:45:39.549Z,50.42
2022-08-14T05:46:39.575Z,52.21
2022-08-14T05:47:39.871Z,53.08
2022-08-14T05:48:42.868Z,58.23
2022-08-14T05:49:39.611Z,50.10
2022-08-14T05:50:39.516Z,60.92
2022-08-14T05:51:39.527Z,50.27
2022-08-14T05:52:39.666Z,45.82
2022-08-14T05:53:42.156Z,44.61
2022-08-14T05:54:39.486Z,54.05
2022-08-14T05:55:42.881Z,47.61
2022-08-14T05:56:41.472Z,40.22
2022-08-14T05:57:39.470Z,39.47
2022-08-14T05:58:41.498Z,51.86
2022-08-14T05:59:40.456Z,47.13
2022-08-14T06:00:39.826Z,51.25
2022-08-14T06:01:39.510Z,46.43
2022-08-14T06:02:39.425Z,52.96
2022-08-14T06:03:40.256Z,47.00
2022-08-14T06:04:39.468Z,51.74
2022-08-14T06:05:39.416Z,43.91
2022-08-14T06:06:39.444Z,49.18
2022-08-14T06:07:39.413Z,50.57
2022-08-14T06:08:41.511Z,49.47
2022-08-14T06:09:40.574Z,53.04
2022-08-14T06:10:39.378Z,43.10
2022-08-14T06:11:39.360Z,51.90
2022-08-14T06:12:55.826Z,53.76
2022-08-14T06:13:45.359Z,48.62
2022-08-14T06:14:40.419Z,53.98
2022-08-14T06:15:39.342Z,53.99
2022-08-14T06:16:39.338Z,46.74
2022-08-14T06:17:45.984Z,50.86
2022-08-14T06:18:40.340Z,56.89
2022-08-14T06:19:39.342Z,42.94
2022-08-14T06:20:39.320Z,43.42
2022-08-14T06:21:39.468Z,52.64
2022-08-14T06:22:39.293Z,46.23
2022-08-14T06:23:39.279Z,53.66
2022-08-14T06:24:39.292Z,46.79
2022-08-14T06:25:39.260Z,44.99
2022-08-14T06:26:39.244Z,50.26
2022-08-14T06:27:39.265Z,49.18
2022-08-14T06:28:39.227Z,55.65
2022-08-14T06:29:39.246Z,48.85
2022-08-14T06:30:46.170Z,60.08
2022-08-14T06:31:40.199Z,53.40
2022-08-14T06:32:39.489Z,47.69
2022-08-14T06:35:03.056Z,50.10
2022-08-14T06:35:09.265Z,45.16
2022-08-14T06:35:40.188Z,51.32
2022-08-14T06:36:39.892Z,42.22
2022-08-14T06:37:39.177Z,56.73
2022-08-14T06:38:39.191Z,52.07
2022-08-14T06:39:39.271Z,46.42
2022-08-14T06:40:40.350Z,54.87
2022-08-14T06:41:58.559Z,48.93
2022-08-14T06:42:40.122Z,51.26
2022-08-14T06:43:39.152Z,43.33
2022-08-14T06:44:40.154Z,52.46
2022-08-14T06:45:39.117Z,57.87
2022-08-14T06:46:39.139Z,54.89
2022-08-14T06:47:39.119Z,53.50
2022-08-14T06:48:39.087Z,48.45
2022-08-14T06:49:43.271Z,52.13
2022-08-14T06:50:40.094Z,55.62
2022-08-14T06:51:44.818Z,55.26
2022-08-14T06:52:40.112Z,49.64
2022-08-14T06:53:40.089Z,53.66
2022-08-14T06:54:39.052Z,54.32
2022-08-14T06:55:40.799Z,52.83
2022-08-14T06:56:40.106Z,53.51
2022-08-14T06:57:39.051Z,54.28
2022-08-14T06:58:39.050Z,46.23
2022-08-14T06:59:39.039Z,57.71
2022-08-14T07:00:39.016Z,50.47
2022-08-14T07:01:39.053Z,51.88
2022-08-14T07:02:43.781Z,51.09
2022-08-14T07:03:39.052Z,44.63
2022-08-14T07:04:39.021Z,51.38
2022-08-14T07:05:39.022Z,59.06
2022-08-14T07:06:47.060Z,55.70
2022-08-14T07:07:40.000Z,49.77
2022-08-14T07:08:38.991Z,59.53
2022-08-14T07:09:40.508Z,53.43
2022-08-14T07:10:39.971Z,57.63
2022-08-14T07:11:38.935Z,55.79
2022-08-14T07:13:02.056Z,61.39
2022-08-14T07:13:39.926Z,52.19
2022-08-14T07:14:38.969Z,58.24
2022-08-14T07:15:39.981Z,48.97
2022-08-14T07:16:38.924Z,53.60
2022-08-14T07:17:38.885Z,64.59
2022-08-14T07:18:40.713Z,60.09
2022-08-14T07:19:38.910Z,55.30
2022-08-14T07:20:38.936Z,62.65
2022-08-14T07:21:38.896Z,57.13
2022-08-14T07:22:56.305Z,48.64
2022-08-14T07:23:40.283Z,53.67
2022-08-14T07:24:38.855Z,46.70
2022-08-14T07:25:38.870Z,57.09
2022-08-14T07:26:38.872Z,60.27
2022-08-14T07:27:38.854Z,55.33
2022-08-14T07:28:43.250Z,61.21
2022-08-14T07:29:38.889Z,60.04
2022-08-14T07:30:42.095Z,54.36
2022-08-14T07:31:39.808Z,47.86
2022-08-14T07:32:38.832Z,49.17
2022-08-14T07:33:41.927Z,52.45
2022-08-14T07:34:41.207Z,62.41
2022-08-14T07:35:57.683Z,53.68
2022-08-14T07:36:39.789Z,57.15
2022-08-14T07:37:39.805Z,51.85
2022-08-14T07:38:38.763Z,56.67
2022-08-14T07:39:38.929Z,51.56
2022-08-14T07:40:38.748Z,51.51
2022-08-14T07:41:38.876Z,45.60
2022-08-14T07:42:41.135Z,58.70
2022-08-14T07:43:38.782Z,58.47
2022-08-14T07:44:45.803Z,58.78
2022-08-14T07:45:39.708Z,58.47
2022-08-14T07:46:38.714Z,55.05
2022-08-14T07:47:38.708Z,54.36
2022-08-14T07:48:38.685Z,55.73
2022-08-14T07:49:38.701Z,55.59
2022-08-14T07:50:38.725Z,50.84
2022-08-14T07:51:38.664Z,62.33
2022-08-14T07:52:38.648Z,59.42
2022-08-14T07:53:40.521Z,56.99
2022-08-14T07:54:38.713Z,54.81
2022-08-14T07:55:38.617Z,55.69
2022-08-14T07:56:47.029Z,56.37
2022-08-14T07:57:39.610Z,59.46
2022-08-14T07:58:38.958Z,57.83
2022-08-14T07:59:42.557Z,59.01
2022-08-14T08:00:38.685Z,58.44
2022-08-14T08:01:39.553Z,56.81
2022-08-14T08:02:40.703Z,57.14
2022-08-14T08:03:38.621Z,55.43
2022-08-14T08:04:38.580Z,51.71
2022-08-14T08:05:38.557Z,59.83
2022-08-14T08:06:38.561Z,53.01
2022-08-14T08:07:39.123Z,54.12
2022-08-14T08:08:38.573Z,55.02
2022-08-14T08:09:38.541Z,60.38
2022-08-14T08:11:02.525Z,57.60
2022-08-14T08:11:39.522Z,54.92
2022-08-14T08:12:38.556Z,53.91
2022-08-14T08:14:17.616Z,58.77
2022-08-14T08:14:56.541Z,49.98
2022-08-14T08:15:38.541Z,60.70
2022-08-14T08:16:38.474Z,59.21
2022-08-14T08:17:53.452Z,50.60
2022-08-14T08:18:39.531Z,61.84
2022-08-14T08:19:39.847Z,58.47
2022-08-14T08:20:38.498Z,57.48
2022-08-14T08:21:38.579Z,50.64
2022-08-14T08:22:39.448Z,54.28
2022-08-14T08:23:50.979Z,60.64
2022-08-14T08:24:39.416Z,62.42
2022-08-14T08:25:39.968Z,56.01
2022-08-14T08:26:38.715Z,50.40
2022-08-14T08:27:39.033Z,54.07
2022-08-14T08:28:43.689Z,60.34
2022-08-14T08:29:38.385Z,53.45
2022-08-14T08:30:49.355Z,62.85
2022-08-14T08:31:39.394Z,59.63
2022-08-14T08:32:38.470Z,52.24
2022-08-14T08:33:38.386Z,57.77
2022-08-14T08:34:38.368Z,55.70
2022-08-14T08:35:46.803Z,47.60
2022-08-14T08:36:39.470Z,56.46
2022-08-14T08:37:40.392Z,49.49
2022-08-14T08:39:18.538Z,53.70
2022-08-14T08:40:01.973Z,57.45
2022-08-14T08:40:42.424Z,58.73
2022-08-14T08:41:38.327Z,59.41
2022-08-14T08:42:44.585Z,57.18
2022-08-14T08:43:39.348Z,56.89
2022-08-14T08:44:39.281Z,57.20
2022-08-14T08:45:38.269Z,56.92
2022-08-14T08:46:38.282Z,50.77
2022-08-14T08:47:38.280Z,57.02
2022-08-14T08:48:44.260Z,57.32
2022-08-14T08:49:42.794Z,61.73
2022-08-14T08:52:30.861Z,62.67
2022-08-14T08:53:25.856Z,62.91
2022-08-14T08:54:26.634Z,55.62
2022-08-14T08:55:25.842Z,52.15
2022-08-14T08:56:30.670Z,60.71
2022-08-14T08:57:25.840Z,59.11
2022-08-14T08:58:25.480Z,60.06
2022-08-14T08:59:27.102Z,57.03
2022-08-14T09:00:26.440Z,59.63
2022-08-14T09:01:24.923Z,58.46
2022-08-14T09:02:26.082Z,60.08
2022-08-14T09:03:24.804Z,60.49
2022-08-14T09:04:24.802Z,63.45
2022-08-14T09:05:24.811Z,61.71
2022-08-14T09:07:00.357Z,61.49
2022-08-14T09:07:25.765Z,65.92
2022-08-14T09:08:31.285Z,52.48
2022-08-14T09:09:25.794Z,57.09
2022-08-14T09:10:27.168Z,60.33
2022-08-14T09:11:24.811Z,61.18
2022-08-14T09:12:24.739Z,57.53
2022-08-14T09:13:24.726Z,61.31
2022-08-14T09:14:24.768Z,61.55
2022-08-14T09:15:24.710Z,60.84
2022-08-14T09:16:24.989Z,54.04
2022-08-14T09:17:25.775Z,61.87
2022-08-14T09:18:24.747Z,63.28
2022-08-14T09:19:24.657Z,64.06
2022-08-14T09:20:29.500Z,63.22
2022-08-14T09:21:31.174Z,63.30
2022-08-14T09:22:36.100Z,62.30
2022-08-14T09:23:27.480Z,61.16
2022-08-14T09:24:28.183Z,63.82
2022-08-14T09:26:00.422Z,62.75
2022-08-14T09:26:28.620Z,62.43
2022-08-14T09:27:24.640Z,58.35
2022-08-14T09:28:24.624Z,64.26
2022-08-14T09:29:24.622Z,57.73
2022-08-14T09:30:32.269Z,66.46
2022-08-14T09:31:25.594Z,60.72
2022-08-14T09:32:58.034Z,62.45
2022-08-14T09:33:25.587Z,61.39
2022-08-14T09:34:28.007Z,63.16
2022-08-14T09:35:24.591Z,65.89
2022-08-14T09:36:24.566Z,64.15
2022-08-14T09:37:24.615Z,65.10
2022-08-14T09:38:26.169Z,65.00
2022-08-14T09:39:24.608Z,62.45
2022-08-14T09:40:24.658Z,60.95
2022-08-14T09:41:24.536Z,59.54
2022-08-14T09:42:33.161Z,61.58
2022-08-14T09:43:26.403Z,60.24
2022-08-14T09:44:24.520Z,64.13
2022-08-14T09:45:24.516Z,61.48
2022-08-14T09:46:25.839Z,61.88
2022-08-14T09:47:24.476Z,60.64
2022-08-14T09:48:27.877Z,62.43
2022-08-14T09:49:25.490Z,62.17
2022-08-14T09:50:26.127Z,60.93
2022-08-14T09:51:25.420Z,63.11
2022-08-14T09:52:34.292Z,64.09
2022-08-14T09:54:12.939Z,56.77
2022-08-14T09:54:25.468Z,54.82
2022-08-14T09:55:24.476Z,65.07
2022-08-14T09:56:31.255Z,61.34
2022-08-14T09:57:27.745Z,57.81
2022-08-14T09:58:24.749Z,62.36
2022-08-14T09:59:24.442Z,62.12
2022-08-14T10:00:28.341Z,56.64
2022-08-14T10:01:25.404Z,61.84
2022-08-14T10:02:24.463Z,66.33
2022-08-14T10:03:24.361Z,59.47
2022-08-14T10:04:35.055Z,61.01
2022-08-14T10:05:25.366Z,67.28
2022-08-14T10:06:24.479Z,62.43
2022-08-14T10:07:24.349Z,63.93
2022-08-14T10:08:26.549Z,61.62
2022-08-14T10:09:24.850Z,57.39
2022-08-14T10:10:24.380Z,52.97
2022-08-14T10:11:24.386Z,60.37
2022-08-14T10:12:29.046Z,63.85
2022-08-14T10:13:25.312Z,57.69
2022-08-14T10:14:29.297Z,64.79
2022-08-14T10:15:25.421Z,63.70
2022-08-14T10:16:27.358Z,63.98
2022-08-14T10:17:25.327Z,62.29
2022-08-14T10:18:24.303Z,61.31
2022-08-14T10:19:24.290Z,60.09
2022-08-14T10:20:39.980Z,60.23
2022-08-14T10:21:25.270Z,64.65
2022-08-14T10:23:15.599Z,60.52
2022-08-14T10:23:26.246Z,64.92
2022-08-14T10:24:24.245Z,62.75
2022-08-14T10:25:25.272Z,65.26
2022-08-14T10:26:28.209Z,60.24
2022-08-14T10:27:24.304Z,59.00
2022-08-14T10:29:03.929Z,65.07
2022-08-14T10:29:25.237Z,63.67
2022-08-14T10:30:25.583Z,58.78
2022-08-14T10:31:25.398Z,66.91
2022-08-14T10:32:36.166Z,58.89
2022-08-14T10:33:25.211Z,67.74
2022-08-14T10:34:29.258Z,62.57
2022-08-14T10:35:31.835Z,63.52
2022-08-14T10:36:37.085Z,58.36
2022-08-14T10:37:27.840Z,56.63
2022-08-14T10:38:24.155Z,60.08
2022-08-14T10:39:25.152Z,63.87
2022-08-14T10:40:44.121Z,62.62
2022-08-14T10:41:31.699Z,58.08
2022-08-14T10:42:25.113Z,59.92
2022-08-14T10:43:24.211Z,59.61
2022-08-14T10:44:24.090Z,63.20
2022-08-14T10:45:24.256Z,64.96
2022-08-14T10:47:37.181Z,63.34
2022-08-14T10:47:39.846Z,66.30
2022-08-14T10:48:37.161Z,61.92
2022-08-14T10:49:25.075Z,60.55
2022-08-14T10:50:24.106Z,62.34
2022-08-14T10:51:24.162Z,61.41
2022-08-14T10:52:24.064Z,64.11
2022-08-14T10:53:24.064Z,64.87
2022-08-14T10:54:39.896Z,63.16
2022-08-14T10:55:25.020Z,65.08
2022-08-14T10:56:33.836Z,59.37
2022-08-14T10:57:25.090Z,59.76
2022-08-14T10:58:24.041Z,61.98
2022-08-14T10:59:30.863Z,66.68
2022-08-14T11:00:30.303Z,62.56
2022-08-14T11:01:24.997Z,67.31
2022-08-14T11:02:44.853Z,63.33
2022-08-14T11:03:26.694Z,65.90
2022-08-14T11:04:26.004Z,53.21
2022-08-14T11:05:24.950Z,61.99
2022-08-14T11:06:24.777Z,63.72
2022-08-14T11:07:23.945Z,65.04
2022-08-14T11:08:23.976Z,61.85
2022-08-14T11:09:26.652Z,61.19
2022-08-14T11:10:25.088Z,63.84
2022-08-14T11:11:23.941Z,63.42
2022-08-14T11:12:34.315Z,64.21
2022-08-14T11:13:24.943Z,62.69
2022-08-14T11:14:26.410Z,65.02
2022-08-14T11:15:23.904Z,59.81
2022-08-14T11:16:23.931Z,62.47
2022-08-14T11:17:23.914Z,66.98
2022-08-14T11:18:32.311Z,65.82
2022-08-14T11:19:25.069Z,62.88
2022-08-14T11:20:24.115Z,65.48
2022-08-14T11:21:23.879Z,65.17
2022-08-14T11:22:52.430Z,67.27
2022-08-14T11:23:24.843Z,65.53
2022-08-14T11:24:50.764Z,61.73
2022-08-14T11:25:24.824Z,66.81
2022-08-14T11:26:25.844Z,64.74
2022-08-14T11:27:33.158Z,63.24
2022-08-14T11:28:47.542Z,54.52
2022-08-14T11:29:26.923Z,62.11
2022-08-14T11:30:50.742Z,65.61
2022-08-14T11:31:24.865Z,63.07
2022-08-14T11:32:23.854Z,61.75
2022-08-14T11:33:23.752Z,65.53
2022-08-14T11:34:32.131Z,57.91
2022-08-14T11:35:24.749Z,62.93
2022-08-14T11:36:35.130Z,58.13
2022-08-14T11:37:38.107Z,63.95
2022-08-14T11:38:25.765Z,65.52
2022-08-14T11:39:34.427Z,63.29
2022-08-14T11:40:29.389Z,66.36
2022-08-14T11:41:24.682Z,61.08
2022-08-14T11:42:57.144Z,66.38
2022-08-14T11:43:29.624Z,63.23
2022-08-14T11:44:45.656Z,61.79
2022-08-14T11:45:24.681Z,63.75
2022-08-14T11:46:29.759Z,65.06
2022-08-14T11:47:25.538Z,63.60
2022-08-14T11:49:04.453Z,62.19
2022-08-14T11:49:24.677Z,65.53
2022-08-14T11:50:25.126Z,65.16
2022-08-14T11:51:24.662Z,65.88
2022-08-14T11:52:23.663Z,66.91
2022-08-14T11:53:23.640Z,65.38
2022-08-14T11:54:33.902Z,65.06
2022-08-14T11:55:25.665Z,61.23
2022-08-14T11:56:25.595Z,62.33
2022-08-14T11:57:23.592Z,67.75
2022-08-14T11:58:23.806Z,66.23
2022-08-14T11:59:26.196Z,65.39
2022-08-14T12:00:32.123Z,67.38
2022-08-14T12:01:24.609Z,68.11
2022-08-14T12:03:00.600Z,67.81
2022-08-14T12:03:37.894Z,65.19
2022-08-14T12:04:32.103Z,68.03
2022-08-14T12:05:24.603Z,65.98
2022-08-14T12:06:29.207Z,63.65
2022-08-14T12:07:24.543Z,66.95
2022-08-14T12:08:24.255Z,64.62
2022-08-14T12:09:23.576Z,66.85
2022-08-14T12:10:27.293Z,67.80
2022-08-14T12:11:24.564Z,65.32
2022-08-14T12:12:35.006Z,65.12
2022-08-14T12:13:27.265Z,63.19
2022-08-14T12:14:30.873Z,64.94
2022-08-14T12:15:24.520Z,67.33
2022-08-14T12:16:23.519Z,65.57
2022-08-14T12:17:24.204Z,61.00
2022-08-14T12:18:23.458Z,63.56
2022-08-14T12:19:23.464Z,65.25
2022-08-14T12:20:29.967Z,66.89
2022-08-14T12:21:25.588Z,65.33
2022-08-14T12:22:29.681Z,64.41
2022-08-14T12:23:24.801Z,67.97
2022-08-14T12:24:35.981Z,66.20
2022-08-14T12:25:24.909Z,64.98
2022-08-14T12:26:39.178Z,62.94
2022-08-14T12:27:25.313Z,64.42
2022-08-14T12:28:26.948Z,65.07
2022-08-14T12:29:24.377Z,62.59
2022-08-14T12:30:23.376Z,65.11
2022-08-14T12:31:23.371Z,62.42
2022-08-14T12:32:23.397Z,60.76
2022-08-14T12:33:24.081Z,66.63
2022-08-14T12:34:24.237Z,67.23
2022-08-14T12:35:23.328Z,65.74
2022-08-14T12:36:23.362Z,63.03
2022-08-14T12:37:23.324Z,65.38
2022-08-14T12:38:23.440Z,66.45
2022-08-14T12:39:23.946Z,63.13
2022-08-14T12:40:23.394Z,57.79
2022-08-14T12:41:24.207Z,60.53
2022-08-14T12:42:27.441Z,62.51
2022-08-14T12:43:24.382Z,63.45
2022-08-14T12:44:23.291Z,59.94
2022-08-14T12:45:23.288Z,65.99
2022-08-14T12:46:27.429Z,62.88
2022-08-14T12:47:25.024Z,62.80
2022-08-14T12:48:32.141Z,63.80
2022-08-14T12:49:25.967Z,64.85
2022-08-14T12:50:23.244Z,66.37
2022-08-14T12:51:25.251Z,57.19
2022-08-14T12:52:30.792Z,62.37
2022-08-14T12:53:24.257Z,64.42
2022-08-14T12:54:28.688Z,56.42
2022-08-14T12:56:00.521Z,63.68
2022-08-14T12:56:33.254Z,61.89
2022-08-14T12:57:24.173Z,63.33
2022-08-14T12:58:29.547Z,62.75
2022-08-14T12:59:24.213Z,64.79
2022-08-14T13:00:24.210Z,65.71
2022-08-14T13:01:24.210Z,63.55
2022-08-14T13:02:26.124Z,62.91
2022-08-14T13:03:24.052Z,61.31
2022-08-14T13:04:23.231Z,66.25
2022-08-14T13:05:23.560Z,63.24
2022-08-14T13:06:23.119Z,66.64
2022-08-14T13:07:23.968Z,64.82
2022-08-14T13:08:33.530Z,64.88
2022-08-14T13:09:24.089Z,52.86
2022-08-14T13:10:52.018Z,51.55
2022-08-14T13:11:24.293Z,63.87
2022-08-14T13:12:34.801Z,65.63
2022-08-14T13:13:24.083Z,63.31
2022-08-14T13:14:29.624Z,64.82
2022-08-14T13:15:25.090Z,65.98
2022-08-14T13:16:38.238Z,59.45
2022-08-14T13:17:24.151Z,62.55
2022-08-14T13:18:23.020Z,62.60
2022-08-14T13:19:24.237Z,62.66
2022-08-14T13:20:24.639Z,62.29
2022-08-14T13:21:23.097Z,58.05
2022-08-14T13:22:31.987Z,64.10
2022-08-14T13:23:30.501Z,52.71
2022-08-14T13:24:24.053Z,62.52
2022-08-14T13:25:23.009Z,65.49
2022-08-14T13:26:22.972Z,65.69
2022-08-14T13:27:23.971Z,61.65
2022-08-14T13:28:33.021Z,65.87
2022-08-14T13:29:23.941Z,62.82
2022-08-14T13:30:24.084Z,60.25